Time;durP1;ratioP1;P1;durP2;ratioP2;P2;SDS_P1;SDS_P2;PMS_P1;PMS_P2;Temp;Humidity;BMP_temperature;BMP_pressure;BME280_temperature;BME280_humidity;BME280_pressure;Samples;Min_cycle;Max_cycle;Signal;HPM_P1;HPM_P2
2021/12/18 00:00:36;;;;;;;1.52;1.00;;;2.10;99.90;;;;;;5073518;28;20047;-73
2021/12/18 00:03:03;;;;;;;2.38;1.10;;;2.10;99.90;;;;;;5055994;28;20070;-74
2021/12/18 00:05:29;;;;;;;1.30;0.95;;;2.10;99.90;;;;;;5073899;28;20376;-73
2021/12/18 00:07:55;;;;;;;3.65;1.30;;;2.10;99.90;;;;;;5055854;28;20470;-73
2021/12/18 00:10:23;;;;;;;1.70;0.73;;;2.10;99.90;;;;;;5055552;28;20072;-73
2021/12/18 00:12:50;;;;;;;3.17;0.90;;;2.10;99.90;;;;;;5073839;28;20026;-73
2021/12/18 00:15:17;;;;;;;1.25;0.90;;;2.10;99.90;;;;;;5065038;28;20041;-70
2021/12/18 00:17:43;;;;;;;1.92;1.00;;;2.10;99.90;;;;;;5053888;28;20075;-73
2021/12/18 00:20:09;;;;;;;1.85;0.95;;;2.00;99.90;;;;;;5061156;28;20048;-73
2021/12/18 00:22:35;;;;;;;1.65;0.90;;;2.00;99.90;;;;;;5055884;28;20052;-75
2021/12/18 00:25:01;;;;;;;1.37;1.00;;;2.00;99.90;;;;;;5055448;28;20507;-72
2021/12/18 00:27:28;;;;;;;2.55;1.00;;;2.00;99.90;;;;;;5055715;28;20135;-73
2021/12/18 00:29:54;;;;;;;1.45;0.90;;;2.00;99.90;;;;;;5073026;28;20059;-73
2021/12/18 00:32:19;;;;;;;1.00;0.77;;;1.90;99.90;;;;;;5055636;28;20384;-71
2021/12/18 00:34:45;;;;;;;1.50;0.80;;;1.90;99.90;;;;;;5055122;28;20143;-72
2021/12/18 00:37:11;;;;;;;2.30;0.90;;;1.90;99.90;;;;;;5073724;28;20020;-72
2021/12/18 00:39:43;;;;;;;2.83;1.17;;;1.90;99.90;;;;;;5072884;28;20432;-72
2021/12/18 00:44:53;;;;;;;2.35;1.00;;;1.90;99.90;;;;;;5073153;28;20415;-72
2021/12/18 00:47:19;;;;;;;1.87;1.23;;;1.90;99.90;;;;;;5073373;28;20028;-71
2021/12/18 00:49:45;;;;;;;2.77;1.20;;;1.90;99.90;;;;;;5068494;28;20625;-71
2021/12/18 00:52:12;;;;;;;3.30;1.50;;;1.90;99.90;;;;;;5053292;28;20059;-72
2021/12/18 00:54:37;;;;;;;;;;;1.90;99.90;;;;;;5038610;28;20050;-73
2021/12/18 00:57:04;;;;;;;1.88;0.95;;;1.90;99.90;;;;;;5072839;28;19919;-73
2021/12/18 00:59:32;;;;;;;3.05;1.10;;;1.90;99.90;;;;;;5072744;28;20471;-72
2021/12/18 01:01:58;;;;;;;2.10;1.20;;;1.90;99.90;;;;;;5054823;28;20037;-72
2021/12/18 01:04:24;;;;;;;2.53;1.03;;;1.90;99.90;;;;;;5072728;28;20028;-71
2021/12/18 01:06:49;;;;;;;2.43;1.30;;;1.90;99.90;;;;;;5072940;28;20392;-72
2021/12/18 01:09:19;;;;;;;1.63;0.93;;;1.90;99.90;;;;;;5054881;28;20103;-73
2021/12/18 01:11:46;;;;;;;0.93;0.80;;;1.90;99.90;;;;;;5055063;28;20174;-71
2021/12/18 01:14:37;;;;;;;1.77;0.98;;;1.90;99.90;;;;;;5072848;28;20024;-72
2021/12/18 01:25:01;;;;;;;1.88;0.80;;;1.80;99.90;;;;;;5072620;28;20549;-73
2021/12/18 01:27:27;;;;;;;2.33;1.10;;;1.80;99.90;;;;;;5072542;28;20203;-72
2021/12/18 01:29:53;;;;;;;1.60;0.95;;;1.80;99.90;;;;;;5066517;28;20025;-72
2021/12/18 01:32:19;;;;;;;1.60;0.98;;;1.80;99.90;;;;;;5052268;28;20398;-73
2021/12/18 01:34:45;;;;;;;4.07;1.10;;;1.80;99.90;;;;;;5056404;28;20033;-72
2021/12/18 01:37:11;;;;;;;2.80;1.27;;;1.80;99.90;;;;;;5072217;28;20028;-72
2021/12/18 01:39:37;;;;;;;2.73;1.17;;;1.70;99.90;;;;;;5070322;28;20102;-73
2021/12/18 01:42:38;;;;;;;4.07;1.20;;;1.70;99.90;;;;;;5058916;28;20684;-72
2021/12/18 01:52:45;;;;;;;1.95;1.00;;;1.70;99.90;;;;;;5072271;28;20561;-72
2021/12/18 01:55:11;;;;;;;2.33;1.20;;;1.70;99.90;;;;;;5053505;28;20380;-72
2021/12/18 01:57:38;;;;;;;1.90;1.15;;;1.70;99.90;;;;;;5054102;28;20042;-73
2021/12/18 02:00:16;;;;;;;3.30;1.13;;;1.70;99.90;;;;;;5071347;28;20032;-74
2021/12/18 02:02:41;;;;;;;4.40;1.00;;;1.70;99.90;;;;;;5053590;28;20025;-73
2021/12/18 02:05:07;;;;;;;1.80;0.90;;;1.80;99.90;;;;;;5071353;28;20037;-74
2021/12/18 02:07:33;;;;;;;2.53;1.10;;;1.80;99.90;;;;;;5070965;28;20025;-72
2021/12/18 02:10:06;;;;;;;3.17;1.03;;;1.80;99.90;;;;;;5071169;28;20029;-73
2021/12/18 02:20:45;;;;;;;4.15;1.45;;;1.70;99.90;;;;;;5071266;28;20101;-73
2021/12/18 02:23:11;;;;;;;1.60;1.00;;;1.70;99.90;;;;;;5071372;28;20545;-70
2021/12/18 02:25:38;;;;;;;2.05;1.10;;;1.70;99.90;;;;;;5053164;28;20482;-71
2021/12/18 02:28:08;;;;;;;5.55;1.38;;;1.70;99.90;;;;;;5071538;28;20392;-72
2021/12/18 02:30:34;;;;;;;2.63;1.13;;;1.70;99.90;;;;;;5052793;28;20037;-71
2021/12/18 02:32:59;;;;;;;1.27;0.70;;;1.70;99.90;;;;;;5071240;28;20085;-72
2021/12/18 02:35:39;;;;;;;1.87;1.00;;;1.70;99.90;;;;;;5052963;28;20032;-73
2021/12/18 02:38:19;;;;;;;1.55;0.85;;;1.70;99.90;;;;;;5053409;28;20024;-71
2021/12/18 02:43:32;;;;;;;1.17;0.82;;;1.80;99.90;;;;;;5071456;28;20043;-71
2021/12/18 02:46:06;;;;;;;1.55;0.95;;;1.70;99.90;;;;;;5052916;28;20041;-72
2021/12/18 02:48:34;;;;;;;1.98;0.75;;;1.70;99.90;;;;;;5071380;28;20024;-73
2021/12/18 02:51:00;;;;;;;2.55;0.90;;;1.60;99.90;;;;;;5070771;28;20040;-72
2021/12/18 02:53:26;;;;;;;1.27;0.77;;;1.60;99.90;;;;;;5071162;28;20047;-72
2021/12/18 02:56:01;;;;;;;1.15;0.90;;;1.60;99.90;;;;;;5071282;28;20037;-73
2021/12/18 02:58:27;;;;;;;1.55;0.82;;;1.60;99.90;;;;;;5071436;28;20025;-72
2021/12/18 03:00:55;;;;;;;0.82;0.70;;;1.70;99.90;;;;;;5052867;28;20037;-73
2021/12/18 03:03:25;;;;;;;1.83;0.90;;;1.60;99.90;;;;;;5071019;28;20055;-72
2021/12/18 03:27:15;;;;;;;1.75;0.90;;;1.50;99.90;;;;;;5074612;28;20033;-73
2021/12/18 03:29:41;;;;;;;2.20;1.07;;;1.50;99.90;;;;;;5056198;28;20151;-73
2021/12/18 03:32:07;;;;;;;1.70;0.80;;;1.50;99.90;;;;;;5074668;28;20111;-72
2021/12/18 03:34:33;;;;;;;1.03;0.73;;;1.50;99.90;;;;;;5074214;28;20040;-72
2021/12/18 03:36:59;;;;;;;1.53;0.90;;;1.40;99.90;;;;;;5056794;28;20269;-72
2021/12/18 03:39:25;;;;;;;2.97;1.40;;;1.40;99.90;;;;;;5073970;28;20131;-72
2021/12/18 03:41:51;;;;;;;2.53;0.90;;;1.40;99.90;;;;;;5074613;28;20111;-71
2021/12/18 03:44:17;;;;;;;1.07;0.80;;;1.30;99.90;;;;;;5074054;28;20250;-73
2021/12/18 03:46:42;;;;;;;1.87;0.90;;;1.20;99.90;;;;;;5056515;28;20033;-72
2021/12/18 03:49:08;;;;;;;1.40;0.93;;;1.10;99.90;;;;;;5074522;28;20028;-72
2021/12/18 03:51:34;;;;;;;1.57;1.10;;;1.00;99.90;;;;;;5074430;28;20037;-73
2021/12/18 03:54:00;;;;;;;1.50;0.87;;;1.00;99.90;;;;;;5074324;28;20052;-72
2021/12/18 03:56:25;;;;;;;2.40;1.03;;;1.00;99.90;;;;;;5074488;28;20429;-72
2021/12/18 03:58:51;;;;;;;1.50;1.10;;;1.00;99.90;;;;;;5074218;28;20082;-72
2021/12/18 04:01:17;;;;;;;2.87;0.80;;;1.00;99.90;;;;;;5074117;28;20035;-72
2021/12/18 04:03:42;;;;;;;1.07;0.87;;;0.90;99.90;;;;;;5074080;28;20026;-72
2021/12/18 04:06:08;;;;;;;2.20;1.00;;;0.90;99.90;;;;;;5074281;28;20078;-72
2021/12/18 04:08:34;;;;;;;2.17;0.93;;;0.80;99.90;;;;;;5074109;28;20035;-72
2021/12/18 04:11:00;;;;;;;2.60;0.87;;;0.80;99.90;;;;;;5073898;28;20052;-72
2021/12/18 04:13:25;;;;;;;1.97;1.10;;;0.80;99.90;;;;;;5073715;28;20261;-72
2021/12/18 04:15:51;;;;;;;2.53;1.00;;;0.80;99.90;;;;;;5073604;28;20029;-72
2021/12/18 04:18:17;;;;;;;3.57;1.20;;;0.70;99.90;;;;;;5074081;28;20028;-72
2021/12/18 04:20:42;;;;;;;1.67;1.00;;;0.60;99.90;;;;;;5073732;28;20376;-72
2021/12/18 04:23:08;;;;;;;3.93;1.17;;;0.60;99.90;;;;;;5056042;28;20062;-73
2021/12/18 04:25:37;;;;;;;2.20;1.00;;;0.70;99.90;;;;;;5055200;28;20480;-74
2021/12/18 04:28:03;;;;;;;4.60;1.38;;;0.70;99.90;;;;;;5074037;28;20020;-72
2021/12/18 04:30:29;;;;;;;1.52;1.10;;;0.70;99.90;;;;;;5062021;28;20457;-72
2021/12/18 04:32:54;;;;;;;2.03;1.10;;;0.70;99.90;;;;;;5071307;28;20050;-72
2021/12/18 04:35:20;;;;;;;2.10;0.97;;;0.80;99.90;;;;;;5073055;28;20025;-73
2021/12/18 04:37:46;;;;;;;1.80;1.13;;;0.80;99.90;;;;;;5073687;28;20488;-73
2021/12/18 04:40:12;;;;;;;1.87;1.00;;;0.90;99.90;;;;;;5054984;28;20109;-72
2021/12/18 04:42:37;;;;;;;2.13;1.27;;;0.90;99.90;;;;;;5073390;28;20336;-73
2021/12/18 04:45:04;;;;;;;1.70;1.07;;;0.90;99.90;;;;;;5073101;28;20024;-72
2021/12/18 04:47:30;;;;;;;;;;;0.90;99.90;;;;;;5073902;28;20536;-72
2021/12/18 04:49:55;;;;;;;1.50;0.80;;;0.90;99.90;;;;;;5073096;28;20014;-72
2021/12/18 04:52:23;;;;;;;2.40;1.20;;;0.90;99.90;;;;;;5073570;28;20024;-72
2021/12/18 04:54:49;;;;;;;1.83;0.98;;;1.00;99.90;;;;;;5049316;28;20735;-72
2021/12/18 04:57:14;;;;;;;2.03;0.85;;;0.90;99.90;;;;;;5035226;28;20063;-72
2021/12/18 04:59:44;;;;;;;1.57;0.80;;;0.90;99.90;;;;;;5056491;28;20122;-72
2021/12/18 05:02:11;;;;;;;3.05;0.70;;;1.00;99.90;;;;;;5054926;28;20032;-72
2021/12/18 05:04:37;;;;;;;1.38;0.73;;;1.00;99.90;;;;;;5054245;28;20028;-73
2021/12/18 05:07:03;;;;;;;2.20;1.25;;;1.00;99.90;;;;;;5073010;28;20353;-72
2021/12/18 05:09:29;;;;;;;1.33;0.77;;;1.00;99.90;;;;;;5072527;28;20028;-72
2021/12/18 05:11:55;;;;;;;0.73;0.60;;;1.10;99.90;;;;;;5055022;28;20052;-71
2021/12/18 05:14:22;;;;;;;1.98;0.85;;;1.10;99.90;;;;;;5072354;28;20048;-71
2021/12/18 05:16:48;;;;;;;3.00;1.00;;;1.00;99.90;;;;;;5054692;28;20511;-72
2021/12/18 05:19:14;;;;;;;1.83;1.00;;;1.00;99.90;;;;;;5072643;28;20395;-73
2021/12/18 05:21:40;;;;;;;2.08;1.00;;;1.00;99.90;;;;;;5073071;28;20040;-71
2021/12/18 05:24:06;;;;;;;2.37;1.20;;;1.00;99.90;;;;;;5072532;28;20376;-72
2021/12/18 05:26:32;;;;;;;2.47;1.00;;;1.00;99.90;;;;;;5068530;28;20086;-72
2021/12/18 05:28:57;;;;;;;1.97;1.00;;;1.00;99.90;;;;;;5072458;28;20036;-72
2021/12/18 05:31:23;;;;;;;1.30;0.80;;;1.00;99.90;;;;;;5072593;28;20033;-73
2021/12/18 05:33:52;;;;;;;3.40;1.10;;;1.00;99.90;;;;;;5072331;28;20062;-72
2021/12/18 05:37:01;;;;;;;2.53;1.10;;;1.00;99.90;;;;;;5036772;28;20041;-73
2021/12/18 05:39:27;;;;;;;1.77;1.00;;;1.00;99.90;;;;;;5052742;28;20059;-72
2021/12/18 05:41:54;;;;;;;2.05;1.00;;;1.00;99.90;;;;;;5054109;28;20056;-72
2021/12/18 05:44:22;;;;;;;1.98;1.17;;;1.00;99.90;;;;;;5053891;28;20070;-72
2021/12/18 05:46:48;;;;;;;2.38;1.10;;;1.00;99.90;;;;;;5071984;28;20043;-73
2021/12/18 05:49:14;;;;;;;3.05;1.50;;;1.00;99.90;;;;;;5053961;28;20020;-72
2021/12/18 05:51:42;;;;;;;2.38;1.30;;;1.00;99.90;;;;;;5054127;28;20037;-72
2021/12/18 05:54:10;;;;;;;1.58;1.02;;;1.00;99.90;;;;;;5054025;28;20064;-73
2021/12/18 05:56:37;;;;;;;1.85;1.17;;;1.00;99.90;;;;;;5071994;28;20380;-72
2021/12/18 05:59:03;;;;;;;2.33;1.40;;;1.00;99.90;;;;;;5053728;28;20025;-72
2021/12/18 06:01:29;;;;;;;3.08;1.13;;;1.00;99.90;;;;;;5071862;28;20032;-72
2021/12/18 06:03:55;;;;;;;1.95;1.10;;;1.10;99.90;;;;;;5053912;28;20078;-72
2021/12/18 06:06:21;;;;;;;2.33;1.23;;;1.00;99.90;;;;;;5071501;28;20115;-73
2021/12/18 06:08:47;;;;;;;2.67;1.20;;;1.00;99.90;;;;;;5071809;28;20081;-72
2021/12/18 06:11:16;;;;;;;1.85;0.95;;;1.00;99.90;;;;;;5071672;28;20036;-72
2021/12/18 06:13:47;;;;;;;1.65;1.02;;;1.00;99.90;;;;;;5053578;28;20040;-73
2021/12/18 06:16:13;;;;;;;2.55;1.30;;;0.90;99.90;;;;;;5070962;28;20094;-72
2021/12/18 06:18:40;;;;;;;;;;;0.80;99.90;;;;;;5053933;28;20119;-73
2021/12/18 06:21:07;;;;;;;3.80;1.30;;;0.80;99.90;;;;;;5055822;28;20379;-72
2021/12/18 06:23:33;;;;;;;2.47;0.90;;;0.80;99.90;;;;;;5051552;28;20028;-72
2021/12/18 06:25:58;;;;;;;1.57;1.00;;;0.70;99.90;;;;;;5065795;28;20367;-72
2021/12/18 06:28:24;;;;;;;1.90;0.97;;;0.70;99.90;;;;;;5053405;28;20094;-72
2021/12/18 06:30:50;;;;;;;1.10;0.77;;;0.80;99.90;;;;;;5058021;28;20083;-73
2021/12/18 06:33:17;;;;;;;1.60;1.00;;;0.80;99.90;;;;;;5051376;28;20032;-72
2021/12/18 06:35:43;;;;;;;2.83;1.00;;;0.80;99.90;;;;;;5044941;28;20086;-72
2021/12/18 06:38:09;;;;;;;0.90;0.73;;;0.80;99.90;;;;;;5071444;28;20029;-72
2021/12/18 06:40:35;;;;;;;2.30;0.90;;;0.80;99.90;;;;;;5052814;28;20072;-72
2021/12/18 06:43:01;;;;;;;1.50;0.90;;;0.90;99.90;;;;;;5052989;28;20071;-73
2021/12/18 06:45:27;;;;;;;2.35;1.20;;;0.90;99.90;;;;;;5071048;28;20031;-73
2021/12/18 06:47:53;;;;;;;1.88;0.82;;;0.90;99.90;;;;;;5052975;28;20024;-72
2021/12/18 06:50:20;;;;;;;1.60;1.00;;;1.00;99.90;;;;;;5043813;28;20043;-70
2021/12/18 06:52:46;;;;;;;3.47;1.00;;;1.00;99.90;;;;;;5051114;28;20028;-71
2021/12/18 06:55:12;;;;;;;3.20;0.70;;;1.00;99.90;;;;;;5040266;28;20530;-71
2021/12/18 06:57:38;;;;;;;2.38;1.23;;;1.00;99.90;;;;;;5070784;28;20105;-72
2021/12/18 07:00:07;;;;;;;3.08;0.90;;;1.00;99.90;;;;;;5052609;28;20484;-72
2021/12/18 07:02:33;;;;;;;1.63;0.90;;;1.10;99.90;;;;;;5053240;28;20028;-71
2021/12/18 07:04:58;;;;;;;1.80;1.10;;;1.00;99.90;;;;;;5070667;28;20028;-71
2021/12/18 07:07:24;;;;;;;1.77;0.70;;;1.00;99.90;;;;;;5052799;28;20527;-72
2021/12/18 07:09:50;;;;;;;3.57;1.00;;;1.00;99.90;;;;;;5052408;28;20032;-71
2021/12/18 07:12:16;;;;;;;1.30;0.73;;;0.90;99.90;;;;;;5052630;28;20047;-71
2021/12/18 07:14:41;;;;;;;1.17;0.80;;;0.90;99.90;;;;;;5070853;28;20064;-72
2021/12/18 07:17:07;;;;;;;1.40;0.80;;;0.80;99.90;;;;;;5070789;28;20052;-71
2021/12/18 07:19:33;;;;;;;1.37;0.90;;;0.70;99.90;;;;;;5070446;28;20129;-72
2021/12/18 07:22:00;;;;;;;2.22;1.05;;;0.60;99.90;;;;;;5070847;28;20051;-72
2021/12/18 07:24:25;;;;;;;2.17;1.00;;;0.60;99.90;;;;;;5070236;28;20115;-72
2021/12/18 07:26:51;;;;;;;1.63;0.87;;;0.50;99.90;;;;;;5070463;28;20135;-73
2021/12/18 07:29:17;;;;;;;1.43;0.90;;;0.50;99.90;;;;;;5070132;28;20099;-73
2021/12/18 07:31:43;;;;;;;1.38;0.90;;;0.50;99.90;;;;;;5050876;28;20033;-72
2021/12/18 07:34:08;;;;;;;2.30;1.07;;;0.40;99.90;;;;;;5050518;28;20053;-72
2021/12/18 07:36:34;;;;;;;3.67;1.23;;;0.50;99.90;;;;;;5051924;28;20124;-72
2021/12/18 07:39:00;;;;;;;2.03;1.00;;;0.40;99.90;;;;;;5052433;28;20151;-71
2021/12/18 07:41:26;;;;;;;4.32;1.08;;;0.40;99.90;;;;;;5052101;28;20046;-73
2021/12/18 07:43:52;;;;;;;2.63;1.37;;;0.40;99.90;;;;;;5052630;28;20032;-72
2021/12/18 07:46:18;;;;;;;3.23;1.30;;;0.40;99.90;;;;;;5052537;28;20385;-72
2021/12/18 07:48:45;;;;;;;2.13;1.23;;;0.40;99.90;;;;;;5070671;28;20033;-74
2021/12/18 07:51:11;;;;;;;1.85;1.08;;;0.40;99.90;;;;;;5070702;28;20047;-72
2021/12/18 07:53:37;;;;;;;2.67;1.30;;;0.40;99.90;;;;;;5052237;28;20484;-73
2021/12/18 07:56:04;;;;;;;1.35;1.02;;;0.50;99.90;;;;;;5070438;28;20127;-71
2021/12/18 07:58:31;;;;;;;1.08;0.98;;;0.50;99.90;;;;;;5070385;28;20103;-72
2021/12/18 08:00:57;;;;;;;;;;;0.50;99.90;;;;;;5052224;28;20037;-72
2021/12/18 08:03:23;;;;;;;3.80;1.38;;;0.50;99.90;;;;;;5070643;28;20370;-72
2021/12/18 08:05:49;;;;;;;1.90;1.13;;;0.60;99.90;;;;;;5070777;28;20036;-73
2021/12/18 08:08:15;;;;;;;8.95;1.10;;;0.60;99.90;;;;;;5055968;28;20029;-72
2021/12/18 08:10:41;;;;;;;2.40;1.20;;;0.60;99.90;;;;;;5061722;28;20468;-72
2021/12/18 08:13:07;;;;;;;3.63;1.27;;;0.70;99.90;;;;;;5054006;28;20044;-71
2021/12/18 08:15:32;;;;;;;2.67;1.20;;;0.70;99.90;;;;;;5064476;28;20029;-72
2021/12/18 08:17:58;;;;;;;2.33;1.23;;;0.70;99.90;;;;;;5073456;28;20028;-72
2021/12/18 08:20:26;;;;;;;3.27;1.70;;;0.80;99.90;;;;;;5055586;28;20289;-72
2021/12/18 08:22:52;;;;;;;2.75;1.50;;;0.80;99.90;;;;;;5073767;28;20031;-72
2021/12/18 08:25:18;;;;;;;3.22;1.50;;;0.80;99.90;;;;;;5073506;28;20024;-72
2021/12/18 08:27:43;;;;;;;4.07;1.30;;;0.80;99.90;;;;;;5073459;28;20107;-72
2021/12/18 08:30:10;;;;;;;2.77;1.43;;;0.80;99.90;;;;;;5065366;28;20029;-71
2021/12/18 08:32:39;;;;;;;3.35;1.27;;;0.80;99.90;;;;;;5046292;28;20028;-72
2021/12/18 08:35:05;;;;;;;2.65;1.10;;;0.80;99.90;;;;;;5055301;28;20048;-72
2021/12/18 08:37:31;;;;;;;2.55;1.30;;;0.80;99.90;;;;;;5073266;28;20046;-73
2021/12/18 08:39:56;;;;;;;2.77;1.47;;;0.80;99.90;;;;;;5072827;28;20049;-71
2021/12/18 08:42:23;;;;;;;2.70;1.30;;;0.80;99.90;;;;;;5055264;28;20439;-72
2021/12/18 08:44:48;;;;;;;3.03;1.60;;;0.90;99.90;;;;;;5072844;28;20422;-71
2021/12/18 08:47:16;;;;;;;4.07;1.83;;;0.90;99.90;;;;;;5054618;28;20025;-71
2021/12/18 08:49:42;;;;;;;6.78;2.20;;;1.00;99.90;;;;;;5072110;28;20031;-71
2021/12/18 08:52:07;;;;;;;3.17;1.80;;;1.00;99.90;;;;;;5055029;28;20504;-71
2021/12/18 08:54:33;;;;;;;3.57;2.47;;;1.00;99.90;;;;;;5072546;28;21099;-71
2021/12/18 08:56:59;;;;;;;5.00;2.20;;;1.00;99.90;;;;;;5054736;28;20107;-71
2021/12/18 08:59:25;;;;;;;6.37;2.03;;;1.00;99.90;;;;;;5072080;28;20424;-71
2021/12/18 09:01:51;;;;;;;3.80;1.60;;;1.00;99.90;;;;;;5054878;28;20024;-72
2021/12/18 09:04:16;;;;;;;3.60;1.70;;;1.10;99.90;;;;;;5054739;28;20020;-74
2021/12/18 09:06:42;;;;;;;3.80;2.23;;;1.10;99.90;;;;;;5054983;28;20036;-71
2021/12/18 09:09:08;;;;;;;7.27;2.93;;;1.20;99.90;;;;;;5054666;28;20484;-71
2021/12/18 09:11:33;;;;;;;4.50;2.23;;;1.20;99.90;;;;;;5072436;28;20036;-71
2021/12/18 09:14:01;;;;;;;4.60;2.43;;;1.20;99.90;;;;;;5072530;28;20044;-71
2021/12/18 09:16:27;;;;;;;6.65;2.33;;;1.20;99.90;;;;;;5071505;28;20296;-72
2021/12/18 09:18:53;;;;;;;6.85;2.40;;;1.30;99.90;;;;;;5054301;28;20095;-72
2021/12/18 09:21:21;;;;;;;5.63;2.30;;;1.40;99.90;;;;;;5054333;28;20040;-71
2021/12/18 09:23:47;;;;;;;5.18;2.25;;;1.40;99.90;;;;;;5072319;28;20099;-71
2021/12/18 09:26:12;;;;;;;3.73;1.60;;;1.40;99.90;;;;;;5071949;28;20029;-71
2021/12/18 09:28:38;;;;;;;4.37;1.90;;;1.40;99.90;;;;;;5054017;28;20025;-73
2021/12/18 09:31:04;;;;;;;5.87;2.00;;;1.40;99.90;;;;;;5057167;28;20037;-72
2021/12/18 09:33:30;;;;;;;3.83;1.70;;;1.30;99.90;;;;;;5052379;28;20040;-73
2021/12/18 09:35:55;;;;;;;4.07;1.80;;;1.30;99.90;;;;;;5066307;28;20423;-72
2021/12/18 09:38:21;;;;;;;4.50;1.80;;;1.30;99.90;;;;;;5071911;28;20024;-72
2021/12/18 09:40:47;;;;;;;9.40;2.07;;;1.30;99.90;;;;;;5071537;28;20464;-72
2021/12/18 09:43:13;;;;;;;5.28;2.42;;;1.30;99.90;;;;;;5072193;28;20410;-72
2021/12/18 09:45:38;;;;;;;6.23;2.40;;;1.30;99.90;;;;;;5072032;28;20045;-73
2021/12/18 09:48:05;;;;;;;5.67;2.33;;;1.30;99.90;;;;;;5072071;28;20533;-72
2021/12/18 09:50:34;;;;;;;;;;;1.30;99.90;;;;;;5043022;28;20476;-72
2021/12/18 09:53:00;;;;;;;4.10;2.13;;;1.20;99.90;;;;;;5051886;28;19920;-72
2021/12/18 09:55:25;;;;;;;4.70;2.15;;;1.20;99.90;;;;;;5051411;28;20101;-74
2021/12/18 09:57:51;;;;;;;4.23;2.10;;;1.20;99.90;;;;;;5051811;28;20037;-72
2021/12/18 10:00:22;;;;;;;4.80;2.10;;;1.20;99.90;;;;;;5060099;28;20426;-72
2021/12/18 10:02:48;;;;;;;3.92;2.05;;;1.20;99.90;;;;;;5071559;28;20032;-72
2021/12/18 10:05:27;;;;;;;4.53;2.20;;;1.20;99.90;;;;;;5053310;28;20077;-72
2021/12/18 10:08:16;;;;;;;3.13;1.90;;;1.10;99.90;;;;;;5071694;28;20108;-72
2021/12/18 10:11:09;;;;;;;8.60;3.10;;;1.10;99.90;;;;;;5071050;28;20037;-72
2021/12/18 10:13:50;;;;;;;10.38;2.20;;;1.10;99.90;;;;;;5071380;28;20028;-73
2021/12/18 10:16:16;;;;;;;5.07;2.92;;;1.20;99.90;;;;;;5071517;28;20086;-72
2021/12/18 10:18:42;;;;;;;5.03;3.00;;;1.20;99.90;;;;;;5053397;28;20029;-72
2021/12/18 10:21:21;;;;;;;4.73;2.33;;;1.30;99.90;;;;;;5053079;28;20131;-73
2021/12/18 10:23:49;;;;;;;5.15;2.28;;;1.30;99.90;;;;;;5071179;28;20277;-72
2021/12/18 10:26:31;;;;;;;6.07;2.83;;;1.40;99.90;;;;;;5070881;28;20067;-72
2021/12/18 10:28:57;;;;;;;5.00;2.40;;;1.40;99.90;;;;;;5070536;28;20021;-72
2021/12/18 10:31:44;;;;;;;4.18;2.53;;;1.40;99.90;;;;;;5070970;28;20047;-72
2021/12/18 10:34:13;;;;;;;5.82;2.70;;;1.40;99.90;;;;;;5071109;28;20046;-72
2021/12/18 10:36:39;;;;;;;5.60;2.58;;;1.40;99.90;;;;;;5051439;28;20460;-73
2021/12/18 10:39:05;;;;;;;3.60;1.80;;;1.40;99.90;;;;;;5050896;28;20103;-72
2021/12/18 10:41:36;;;;;;;4.23;1.80;;;1.50;99.90;;;;;;5069917;28;20115;-72
2021/12/18 10:44:09;;;;;;;6.28;2.65;;;1.50;99.90;;;;;;5071336;28;20082;-72
2021/12/18 10:46:42;;;;;;;3.10;1.85;;;1.50;99.90;;;;;;5053017;28;20439;-72
2021/12/18 10:49:19;;;;;;;4.22;1.92;;;1.50;99.90;;;;;;5071321;28;20024;-71
2021/12/18 10:51:46;;;;;;;3.72;1.85;;;1.50;99.90;;;;;;5070754;28;20040;-71
2021/12/18 10:54:19;;;;;;;5.28;1.90;;;1.50;99.90;;;;;;5071043;28;20466;-72
2021/12/18 10:56:47;;;;;;;2.50;1.50;;;1.50;99.90;;;;;;5032897;28;20033;-72
2021/12/18 10:59:32;;;;;;;3.85;1.90;;;1.60;99.90;;;;;;5050854;28;20033;-74
2021/12/18 11:02:03;;;;;;;5.88;2.35;;;1.60;99.90;;;;;;5052798;28;20467;-72
2021/12/18 11:04:32;;;;;;;4.57;1.88;;;1.70;99.90;;;;;;5052662;28;20027;-72
2021/12/18 11:06:58;;;;;;;3.35;1.38;;;1.70;99.90;;;;;;5070839;28;20582;-72
2021/12/18 11:09:34;;;;;;;3.17;1.70;;;2.30;99.90;;;;;;5069154;28;20108;-73
2021/12/18 11:14:41;;;;;;;7.15;1.92;;;1.70;99.90;;;;;;5070756;28;20056;-72
2021/12/18 11:17:10;;;;;;;4.23;1.60;;;1.70;99.90;;;;;;5070796;28;20034;-73
2021/12/18 11:19:36;;;;;;;3.20;1.60;;;1.60;99.90;;;;;;5052225;28;20029;-72
2021/12/18 11:22:08;;;;;;;3.65;1.70;;;1.60;99.90;;;;;;5070735;28;20060;-72
2021/12/18 11:24:38;;;;;;;3.08;1.60;;;1.60;99.90;;;;;;5070641;28;20036;-72
2021/12/18 11:27:11;;;;;;;2.95;1.40;;;1.60;99.90;;;;;;5051009;28;20033;-71
2021/12/18 11:29:55;;;;;;;3.33;1.55;;;1.50;99.90;;;;;;5053461;28;20016;-73
2021/12/18 11:32:35;;;;;;;3.10;1.48;;;1.60;99.90;;;;;;5070778;28;20043;-72
2021/12/18 11:35:07;;;;;;;5.13;1.90;;;1.60;99.90;;;;;;5070511;28;20032;-71
2021/12/18 11:37:59;;;;;;;3.60;1.33;;;1.60;99.90;;;;;;5070641;28;20029;-72
2021/12/18 11:40:32;;;;;;;4.45;1.42;;;1.70;99.90;;;;;;5071566;28;20064;-72
2021/12/18 11:42:58;;;;;;;2.08;1.40;;;1.60;99.90;;;;;;5074365;28;20073;-73
2021/12/18 11:45:32;;;;;;;3.13;1.50;;;1.60;99.90;;;;;;5046636;28;20120;-72
2021/12/18 11:47:59;;;;;;;5.78;1.55;;;1.60;99.90;;;;;;5054396;28;20036;-72
2021/12/18 11:50:38;;;;;;;2.63;1.35;;;1.60;99.90;;;;;;5045823;28;20036;-73
2021/12/18 11:53:16;;;;;;;2.22;1.27;;;1.60;99.90;;;;;;5056196;28;20115;-72
2021/12/18 11:55:51;;;;;;;1.42;0.90;;;1.60;99.90;;;;;;5055915;28;20037;-72
2021/12/18 11:58:18;;;;;;;1.95;1.02;;;1.60;99.90;;;;;;5074344;28;20443;-73
2021/12/18 12:00:50;;;;;;;1.90;1.05;;;1.50;99.90;;;;;;5073938;28;20531;-73
2021/12/18 12:03:55;;;;;;;2.90;1.40;;;1.50;99.90;;;;;;5073868;28;20028;-72
2021/12/18 12:06:33;;;;;;;2.90;1.40;;;1.50;99.90;;;;;;5063404;28;20472;-72
2021/12/18 12:12:08;;;;;;;2.58;1.20;;;1.50;99.90;;;;;;5053550;28;20393;-73
2021/12/18 12:14:40;;;;;;;3.17;1.10;;;1.50;99.90;;;;;;5038614;28;20060;-74
2021/12/18 12:17:14;;;;;;;2.28;1.35;;;1.40;99.90;;;;;;5074095;28;20029;-73
2021/12/18 12:19:43;;;;;;;3.00;1.40;;;1.40;99.90;;;;;;5069366;28;20036;-73
2021/12/18 12:22:34;;;;;;;3.60;1.65;;;1.40;99.90;;;;;;5053200;28;20041;-73
2021/12/18 12:25:02;;;;;;;2.47;1.20;;;1.40;99.90;;;;;;5059818;28;20025;-72
2021/12/18 12:27:29;;;;;;;2.10;1.30;;;1.40;99.90;;;;;;5073859;28;20031;-73
2021/12/18 12:29:55;;;;;;;2.88;1.50;;;1.40;99.90;;;;;;5067595;28;20388;-72
2021/12/18 12:32:22;;;;;;;4.35;1.80;;;1.40;99.90;;;;;;5053433;28;20017;-72
2021/12/18 12:35:10;;;;;;;3.85;2.00;;;1.30;99.90;;;;;;5057950;28;20422;-71
2021/12/18 12:37:40;;;;;;;4.78;2.15;;;1.30;99.90;;;;;;5073529;28;20028;-72
2021/12/18 12:40:13;;;;;;;4.32;2.30;;;1.30;99.90;;;;;;5072897;28;20055;-73
2021/12/18 12:43:13;;;;;;;6.80;2.85;;;1.30;99.90;;;;;;5073054;28;20488;-72
2021/12/18 12:45:42;;;;;;;4.50;2.60;;;1.40;99.90;;;;;;5054925;28;20029;-72
2021/12/18 12:48:08;;;;;;;4.93;2.35;;;1.40;99.90;;;;;;5055487;28;20384;-72
2021/12/18 12:50:34;;;;;;;;;;;1.30;99.90;;;;;;5073774;28;20111;-73
2021/12/18 12:53:05;;;;;;;5.20;2.40;;;1.30;99.90;;;;;;5072079;28;20413;-72
2021/12/18 12:55:43;;;;;;;5.18;2.40;;;1.20;99.90;;;;;;5054674;28;20099;-72
2021/12/18 12:58:21;;;;;;;3.80;1.83;;;1.20;99.90;;;;;;5073132;28;20085;-72
2021/12/18 13:00:50;;;;;;;4.82;2.40;;;1.20;99.90;;;;;;5072646;28;20490;-74
2021/12/18 13:03:19;;;;;;;3.92;2.40;;;1.10;99.90;;;;;;5072806;28;20021;-72
2021/12/18 13:05:48;;;;;;;6.38;2.83;;;1.20;99.90;;;;;;5054523;28;20028;-73
2021/12/18 13:08:15;;;;;;;4.03;2.40;;;1.10;99.90;;;;;;5073175;28;20025;-72
2021/12/18 13:10:41;;;;;;;5.88;2.65;;;1.10;99.90;;;;;;5059063;28;20036;-72
2021/12/18 13:13:11;;;;;;;5.80;3.00;;;1.10;99.90;;;;;;5052571;28;20025;-72
2021/12/18 13:16:15;;;;;;;5.35;2.90;;;1.10;99.90;;;;;;5063650;28;20036;-73
2021/12/18 13:18:57;;;;;;;5.85;3.13;;;1.10;99.90;;;;;;5054707;28;20021;-72
2021/12/18 13:21:36;;;;;;;5.65;3.05;;;1.00;99.90;;;;;;5054785;28;20040;-72
2021/12/18 13:24:05;;;;;;;7.82;3.05;;;1.00;99.90;;;;;;5034347;28;20033;-74
2021/12/18 13:26:39;;;;;;;6.53;3.33;;;1.00;99.90;;;;;;5071534;28;20033;-72
2021/12/18 13:29:14;;;;;;;5.70;3.20;;;1.00;99.90;;;;;;5072122;28;20099;-73
2021/12/18 13:31:52;;;;;;;5.70;3.20;;;1.00;99.90;;;;;;5034368;28;20047;-72
2021/12/18 13:34:31;;;;;;;6.05;3.38;;;1.00;99.90;;;;;;5052428;28;20024;-73
2021/12/18 13:37:05;;;;;;;6.88;3.22;;;1.10;99.90;;;;;;5072710;28;20048;-72
2021/12/18 13:39:34;;;;;;;6.55;3.85;;;1.10;99.90;;;;;;5053668;28;20106;-72
2021/12/18 13:42:11;;;;;;;6.80;3.17;;;1.10;99.90;;;;;;5053888;28;20094;-74
2021/12/18 13:44:38;;;;;;;6.70;3.55;;;1.00;99.90;;;;;;5071690;28;20115;-72
2021/12/18 13:47:18;;;;;;;;;;;1.00;99.90;;;;;;5072485;28;20032;-72
2021/12/18 13:49:45;;;;;;;12.48;4.10;;;1.00;99.90;;;;;;5071705;28;19944;-72
2021/12/18 13:52:11;;;;;;;7.30;3.83;;;1.00;99.90;;;;;;5072238;28;20083;-73
2021/12/18 13:54:38;;;;;;;7.13;3.95;;;1.00;99.90;;;;;;5068298;28;20048;-71
2021/12/18 13:57:04;;;;;;;6.47;3.20;;;1.00;99.90;;;;;;5051767;28;20116;-71
2021/12/18 13:59:31;;;;;;;6.82;3.67;;;1.00;99.90;;;;;;5053717;28;20538;-72
2021/12/18 14:02:04;;;;;;;6.85;3.85;;;1.00;99.90;;;;;;5053925;28;20391;-72